sensor_id;sensor_type;location;lat;lon;timestamp;temperature;humidity
12053;DHT22;6087;48.982;12.064;2023-05-07T00:00:05;14.90;70.70
12053;DHT22;6087;48.982;12.064;2023-05-07T00:02:33;14.90;70.70
12053;DHT22;6087;48.982;12.064;2023-05-07T00:05:00;14.90;70.80
12053;DHT22;6087;48.982;12.064;2023-05-07T00:07:27;14.90;71.50
12053;DHT22;6087;48.982;12.064;2023-05-07T00:09:54;14.80;71.00
12053;DHT22;6087;48.982;12.064;2023-05-07T00:12:21;14.80;71.00
12053;DHT22;6087;48.982;12.064;2023-05-07T00:14:48;14.70;72.80
12053;DHT22;6087;48.982;12.064;2023-05-07T00:17:16;14.70;73.00
12053;DHT22;6087;48.982;12.064;2023-05-07T00:19:43;14.70;73.20
12053;DHT22;6087;48.982;12.064;2023-05-07T00:22:10;14.70;72.30
12053;DHT22;6087;48.982;12.064;2023-05-07T00:24:37;14.70;72.20
12053;DHT22;6087;48.982;12.064;2023-05-07T00:27:04;14.70;73.10
12053;DHT22;6087;48.982;12.064;2023-05-07T00:29:31;14.70;73.00
12053;DHT22;6087;48.982;12.064;2023-05-07T00:31:57;14.70;73.00
12053;DHT22;6087;48.982;12.064;2023-05-07T00:34:26;14.70;72.70
12053;DHT22;6087;48.982;12.064;2023-05-07T00:36:53;14.70;72.20
12053;DHT22;6087;48.982;12.064;2023-05-07T00:39:22;14.60;74.60
12053;DHT22;6087;48.982;12.064;2023-05-07T00:41:49;14.60;74.50
12053;DHT22;6087;48.982;12.064;2023-05-07T00:44:16;14.50;74.70
12053;DHT22;6087;48.982;12.064;2023-05-07T00:46:46;14.50;76.00
12053;DHT22;6087;48.982;12.064;2023-05-07T00:49:15;14.50;75.50
12053;DHT22;6087;48.982;12.064;2023-05-07T00:51:44;14.40;75.50
12053;DHT22;6087;48.982;12.064;2023-05-07T00:54:11;14.40;75.80
12053;DHT22;6087;48.982;12.064;2023-05-07T00:56:38;14.30;77.30
12053;DHT22;6087;48.982;12.064;2023-05-07T00:59:06;14.20;79.10
12053;DHT22;6087;48.982;12.064;2023-05-07T01:01:36;14.20;78.70
12053;DHT22;6087;48.982;12.064;2023-05-07T01:04:03;14.20;80.00
12053;DHT22;6087;48.982;12.064;2023-05-07T01:06:30;14.20;80.90
12053;DHT22;6087;48.982;12.064;2023-05-07T01:09:00;14.20;81.70
12053;DHT22;6087;48.982;12.064;2023-05-07T01:11:27;14.20;81.20
12053;DHT22;6087;48.982;12.064;2023-05-07T01:13:54;14.10;81.60
12053;DHT22;6087;48.982;12.064;2023-05-07T01:16:21;14.10;80.80
12053;DHT22;6087;48.982;12.064;2023-05-07T01:18:48;14.00;80.90
12053;DHT22;6087;48.982;12.064;2023-05-07T01:21:16;14.00;82.60
12053;DHT22;6087;48.982;12.064;2023-05-07T01:23:46;13.90;84.70
12053;DHT22;6087;48.982;12.064;2023-05-07T01:26:13;13.90;84.90
12053;DHT22;6087;48.982;12.064;2023-05-07T01:28:40;13.90;85.50
12053;DHT22;6087;48.982;12.064;2023-05-07T01:31:08;13.90;85.70
12053;DHT22;6087;48.982;12.064;2023-05-07T01:33:36;13.90;85.60
12053;DHT22;6087;48.982;12.064;2023-05-07T01:36:05;13.80;87.60
12053;DHT22;6087;48.982;12.064;2023-05-07T01:38:34;13.80;90.00
12053;DHT22;6087;48.982;12.064;2023-05-07T01:41:04;13.80;90.00
12053;DHT22;6087;48.982;12.064;2023-05-07T01:43:31;13.80;88.40
12053;DHT22;6087;48.982;12.064;2023-05-07T01:45:59;13.80;90.00
12053;DHT22;6087;48.982;12.064;2023-05-07T01:48:28;13.70;90.30
12053;DHT22;6087;48.982;12.064;2023-05-07T01:50:55;13.70;90.60
12053;DHT22;6087;48.982;12.064;2023-05-07T01:53:23;13.70;90.80
12053;DHT22;6087;48.982;12.064;2023-05-07T01:55:50;13.70;92.10
12053;DHT22;6087;48.982;12.064;2023-05-07T01:58:18;13.70;91.50
12053;DHT22;6087;48.982;12.064;2023-05-07T02:00:45;13.70;91.40
12053;DHT22;6087;48.982;12.064;2023-05-07T02:03:12;13.70;90.90
12053;DHT22;6087;48.982;12.064;2023-05-07T02:05:40;13.70;91.40
12053;DHT22;6087;48.982;12.064;2023-05-07T02:08:07;13.70;91.30
12053;DHT22;6087;48.982;12.064;2023-05-07T02:10:34;13.70;91.10
12053;DHT22;6087;48.982;12.064;2023-05-07T02:13:01;13.70;90.80
12053;DHT22;6087;48.982;12.064;2023-05-07T02:15:30;13.70;91.50
12053;DHT22;6087;48.982;12.064;2023-05-07T02:17:59;13.60;92.10
12053;DHT22;6087;48.982;12.064;2023-05-07T02:20:26;13.60;91.80
12053;DHT22;6087;48.982;12.064;2023-05-07T02:22:53;13.50;92.60
12053;DHT22;6087;48.982;12.064;2023-05-07T02:25:20;13.50;92.10
12053;DHT22;6087;48.982;12.064;2023-05-07T02:27:48;13.60;92.10
12053;DHT22;6087;48.982;12.064;2023-05-07T02:30:15;13.60;92.30
12053;DHT22;6087;48.982;12.064;2023-05-07T02:32:46;13.50;93.50
12053;DHT22;6087;48.982;12.064;2023-05-07T02:35:15;13.50;92.70
12053;DHT22;6087;48.982;12.064;2023-05-07T02:37:42;13.50;93.50
12053;DHT22;6087;48.982;12.064;2023-05-07T02:40:12;13.50;93.30
12053;DHT22;6087;48.982;12.064;2023-05-07T02:42:39;13.50;93.90
12053;DHT22;6087;48.982;12.064;2023-05-07T02:45:08;13.50;93.10
12053;DHT22;6087;48.982;12.064;2023-05-07T02:47:35;13.50;93.20
12053;DHT22;6087;48.982;12.064;2023-05-07T02:50:08;13.50;93.30
12053;DHT22;6087;48.982;12.064;2023-05-07T02:52:34;13.50;93.90
12053;DHT22;6087;48.982;12.064;2023-05-07T02:55:08;13.50;94.20
12053;DHT22;6087;48.982;12.064;2023-05-07T02:57:36;13.50;94.00
12053;DHT22;6087;48.982;12.064;2023-05-07T03:00:11;13.50;93.50
12053;DHT22;6087;48.982;12.064;2023-05-07T03:02:41;13.50;93.80
12053;DHT22;6087;48.982;12.064;2023-05-07T03:05:09;13.50;94.60
12053;DHT22;6087;48.982;12.064;2023-05-07T03:07:38;13.50;93.90
12053;DHT22;6087;48.982;12.064;2023-05-07T03:10:06;13.50;94.30
12053;DHT22;6087;48.982;12.064;2023-05-07T03:12:33;13.50;94.10
12053;DHT22;6087;48.982;12.064;2023-05-07T03:15:00;13.50;94.20
12053;DHT22;6087;48.982;12.064;2023-05-07T03:17:29;13.50;94.00
12053;DHT22;6087;48.982;12.064;2023-05-07T03:19:56;13.40;93.90
12053;DHT22;6087;48.982;12.064;2023-05-07T03:22:25;13.40;93.80
12053;DHT22;6087;48.982;12.064;2023-05-07T03:24:54;13.40;94.70
12053;DHT22;6087;48.982;12.064;2023-05-07T03:27:30;13.40;95.00
12053;DHT22;6087;48.982;12.064;2023-05-07T03:29:56;13.40;94.90
12053;DHT22;6087;48.982;12.064;2023-05-07T03:32:23;13.30;95.00
12053;DHT22;6087;48.982;12.064;2023-05-07T03:34:50;13.30;95.50
12053;DHT22;6087;48.982;12.064;2023-05-07T03:37:18;13.30;95.70
12053;DHT22;6087;48.982;12.064;2023-05-07T03:39:47;13.30;95.40
12053;DHT22;6087;48.982;12.064;2023-05-07T03:42:15;13.30;96.00
12053;DHT22;6087;48.982;12.064;2023-05-07T03:44:42;13.30;96.30
12053;DHT22;6087;48.982;12.064;2023-05-07T03:47:09;13.30;96.20
12053;DHT22;6087;48.982;12.064;2023-05-07T03:49:37;13.30;96.30
12053;DHT22;6087;48.982;12.064;2023-05-07T03:52:13;13.30;97.40
12053;DHT22;6087;48.982;12.064;2023-05-07T03:54:40;13.20;98.20
12053;DHT22;6087;48.982;12.064;2023-05-07T03:57:08;13.20;97.70
12053;DHT22;6087;48.982;12.064;2023-05-07T03:59:35;13.20;97.20
12053;DHT22;6087;48.982;12.064;2023-05-07T04:02:02;13.20;97.60
12053;DHT22;6087;48.982;12.064;2023-05-07T04:04:32;13.20;97.90
12053;DHT22;6087;48.982;12.064;2023-05-07T04:07:01;13.20;98.20
12053;DHT22;6087;48.982;12.064;2023-05-07T04:09:29;13.20;98.40
12053;DHT22;6087;48.982;12.064;2023-05-07T04:11:56;13.20;97.40
12053;DHT22;6087;48.982;12.064;2023-05-07T04:14:24;13.20;97.70
12053;DHT22;6087;48.982;12.064;2023-05-07T04:16:51;13.10;98.20
12053;DHT22;6087;48.982;12.064;2023-05-07T04:19:18;13.10;99.70
12053;DHT22;6087;48.982;12.064;2023-05-07T04:21:45;13.10;98.90
12053;DHT22;6087;48.982;12.064;2023-05-07T04:24:12;13.10;98.50
12053;DHT22;6087;48.982;12.064;2023-05-07T04:26:39;13.10;98.50
12053;DHT22;6087;48.982;12.064;2023-05-07T04:29:07;13.10;98.00
12053;DHT22;6087;48.982;12.064;2023-05-07T04:31:35;13.20;97.80
12053;DHT22;6087;48.982;12.064;2023-05-07T04:34:02;13.20;98.30
12053;DHT22;6087;48.982;12.064;2023-05-07T04:36:30;13.20;98.40
12053;DHT22;6087;48.982;12.064;2023-05-07T04:38:58;13.10;99.20
12053;DHT22;6087;48.982;12.064;2023-05-07T04:41:25;13.20;99.10
12053;DHT22;6087;48.982;12.064;2023-05-07T04:43:55;13.10;99.90
12053;DHT22;6087;48.982;12.064;2023-05-07T04:46:22;13.10;99.90
12053;DHT22;6087;48.982;12.064;2023-05-07T04:48:51;13.20;99.90
12053;DHT22;6087;48.982;12.064;2023-05-07T04:51:19;13.20;99.90
12053;DHT22;6087;48.982;12.064;2023-05-07T04:53:46;13.20;99.90
12053;DHT22;6087;48.982;12.064;2023-05-07T04:56:13;13.20;99.90
12053;DHT22;6087;48.982;12.064;2023-05-07T04:58:41;13.30;99.90
12053;DHT22;6087;48.982;12.064;2023-05-07T05:01:08;13.40;99.90
12053;DHT22;6087;48.982;12.064;2023-05-07T05:03:35;13.40;99.90
12053;DHT22;6087;48.982;12.064;2023-05-07T05:06:06;13.50;99.90
12053;DHT22;6087;48.982;12.064;2023-05-07T05:08:36;13.50;99.90
12053;DHT22;6087;48.982;12.064;2023-05-07T05:11:05;13.60;99.90
12053;DHT22;6087;48.982;12.064;2023-05-07T05:13:32;13.70;99.90
12053;DHT22;6087;48.982;12.064;2023-05-07T05:15:59;13.70;99.90
12053;DHT22;6087;48.982;12.064;2023-05-07T05:18:26;13.70;99.90
12053;DHT22;6087;48.982;12.064;2023-05-07T05:20:53;13.80;99.90
12053;DHT22;6087;48.982;12.064;2023-05-07T05:23:21;13.80;99.90
12053;DHT22;6087;48.982;12.064;2023-05-07T05:25:48;13.90;99.90
12053;DHT22;6087;48.982;12.064;2023-05-07T05:28:15;13.90;99.20
12053;DHT22;6087;48.982;12.064;2023-05-07T05:30:42;13.90;99.10
12053;DHT22;6087;48.982;12.064;2023-05-07T05:33:09;13.90;99.60
12053;DHT22;6087;48.982;12.064;2023-05-07T05:35:36;14.00;99.60
12053;DHT22;6087;48.982;12.064;2023-05-07T05:38:03;14.00;98.00
12053;DHT22;6087;48.982;12.064;2023-05-07T05:40:32;14.00;98.00
12053;DHT22;6087;48.982;12.064;2023-05-07T05:43:00;14.10;97.90
12053;DHT22;6087;48.982;12.064;2023-05-07T05:45:34;14.10;97.70
12053;DHT22;6087;48.982;12.064;2023-05-07T05:48:06;14.20;97.40
12053;DHT22;6087;48.982;12.064;2023-05-07T05:50:41;14.30;98.20
12053;DHT22;6087;48.982;12.064;2023-05-07T05:53:13;14.30;98.60
12053;DHT22;6087;48.982;12.064;2023-05-07T05:55:47;14.30;97.80
12053;DHT22;6087;48.982;12.064;2023-05-07T05:58:17;14.40;97.10
12053;DHT22;6087;48.982;12.064;2023-05-07T06:00:44;14.40;97.10
12053;DHT22;6087;48.982;12.064;2023-05-07T06:03:11;14.50;96.40
12053;DHT22;6087;48.982;12.064;2023-05-07T06:05:38;14.50;96.50
12053;DHT22;6087;48.982;12.064;2023-05-07T06:08:05;14.50;95.30
12053;DHT22;6087;48.982;12.064;2023-05-07T06:10:33;14.60;94.90
12053;DHT22;6087;48.982;12.064;2023-05-07T06:13:03;14.60;94.30
12053;DHT22;6087;48.982;12.064;2023-05-07T06:15:30;14.70;95.10
12053;DHT22;6087;48.982;12.064;2023-05-07T06:17:57;14.70;94.40
12053;DHT22;6087;48.982;12.064;2023-05-07T06:20:24;14.80;93.80
12053;DHT22;6087;48.982;12.064;2023-05-07T06:22:51;14.80;93.20
12053;DHT22;6087;48.982;12.064;2023-05-07T06:25:24;14.80;93.00
12053;DHT22;6087;48.982;12.064;2023-05-07T06:27:51;14.90;93.10
12053;DHT22;6087;48.982;12.064;2023-05-07T06:30:28;14.90;93.40
12053;DHT22;6087;48.982;12.064;2023-05-07T06:32:55;14.90;93.10
12053;DHT22;6087;48.982;12.064;2023-05-07T06:35:24;15.00;92.80
12053;DHT22;6087;48.982;12.064;2023-05-07T06:37:56;15.00;92.30
12053;DHT22;6087;48.982;12.064;2023-05-07T06:40:25;15.10;91.90
12053;DHT22;6087;48.982;12.064;2023-05-07T06:42:52;15.10;92.80
12053;DHT22;6087;48.982;12.064;2023-05-07T06:45:19;15.10;91.20
12053;DHT22;6087;48.982;12.064;2023-05-07T06:47:48;15.20;91.50
12053;DHT22;6087;48.982;12.064;2023-05-07T06:50:15;15.30;92.00
12053;DHT22;6087;48.982;12.064;2023-05-07T06:52:45;15.30;91.40
12053;DHT22;6087;48.982;12.064;2023-05-07T06:55:14;15.30;91.80
12053;DHT22;6087;48.982;12.064;2023-05-07T06:57:45;15.40;91.90
12053;DHT22;6087;48.982;12.064;2023-05-07T07:00:13;15.50;92.00
12053;DHT22;6087;48.982;12.064;2023-05-07T07:02:40;15.50;91.00
12053;DHT22;6087;48.982;12.064;2023-05-07T07:05:09;15.50;89.50
12053;DHT22;6087;48.982;12.064;2023-05-07T07:07:36;15.50;90.10
12053;DHT22;6087;48.982;12.064;2023-05-07T07:10:03;15.60;90.10
12053;DHT22;6087;48.982;12.064;2023-05-07T07:12:30;15.60;90.00
12053;DHT22;6087;48.982;12.064;2023-05-07T07:14:57;15.70;87.80
12053;DHT22;6087;48.982;12.064;2023-05-07T07:17:25;15.70;90.10
12053;DHT22;6087;48.982;12.064;2023-05-07T07:19:51;15.70;88.50
12053;DHT22;6087;48.982;12.064;2023-05-07T07:22:20;15.80;86.40
12053;DHT22;6087;48.982;12.064;2023-05-07T07:24:47;15.80;85.60
12053;DHT22;6087;48.982;12.064;2023-05-07T07:27:14;15.80;84.90
12053;DHT22;6087;48.982;12.064;2023-05-07T07:29:40;15.80;84.20
12053;DHT22;6087;48.982;12.064;2023-05-07T07:32:08;15.80;83.80
12053;DHT22;6087;48.982;12.064;2023-05-07T07:34:35;15.80;83.30
12053;DHT22;6087;48.982;12.064;2023-05-07T07:37:02;15.80;82.50
12053;DHT22;6087;48.982;12.064;2023-05-07T07:39:33;15.90;82.30
12053;DHT22;6087;48.982;12.064;2023-05-07T07:42:00;15.90;84.00
12053;DHT22;6087;48.982;12.064;2023-05-07T07:44:30;16.00;87.30
12053;DHT22;6087;48.982;12.064;2023-05-07T07:46:59;16.10;85.00
12053;DHT22;6087;48.982;12.064;2023-05-07T07:49:26;16.10;83.00
12053;DHT22;6087;48.982;12.064;2023-05-07T07:51:53;16.20;81.30
12053;DHT22;6087;48.982;12.064;2023-05-07T07:54:21;16.30;79.90
12053;DHT22;6087;48.982;12.064;2023-05-07T07:56:50;16.30;79.40
12053;DHT22;6087;48.982;12.064;2023-05-07T07:59:17;16.40;80.60
12053;DHT22;6087;48.982;12.064;2023-05-07T08:01:44;16.50;80.80
12053;DHT22;6087;48.982;12.064;2023-05-07T08:04:14;16.60;77.60
12053;DHT22;6087;48.982;12.064;2023-05-07T08:06:41;16.60;76.80
12053;DHT22;6087;48.982;12.064;2023-05-07T08:09:08;16.60;74.30
12053;DHT22;6087;48.982;12.064;2023-05-07T08:11:35;16.60;72.60
12053;DHT22;6087;48.982;12.064;2023-05-07T08:14:03;16.70;72.50
12053;DHT22;6087;48.982;12.064;2023-05-07T08:16:30;16.70;71.20
12053;DHT22;6087;48.982;12.064;2023-05-07T08:18:57;16.70;70.80
12053;DHT22;6087;48.982;12.064;2023-05-07T08:21:24;16.80;71.00
12053;DHT22;6087;48.982;12.064;2023-05-07T08:23:51;16.90;70.40
12053;DHT22;6087;48.982;12.064;2023-05-07T08:26:18;16.90;69.70
12053;DHT22;6087;48.982;12.064;2023-05-07T08:28:45;17.10;70.30
12053;DHT22;6087;48.982;12.064;2023-05-07T08:31:14;17.10;67.20
12053;DHT22;6087;48.982;12.064;2023-05-07T08:33:41;17.10;66.60
12053;DHT22;6087;48.982;12.064;2023-05-07T08:36:07;17.20;66.60
12053;DHT22;6087;48.982;12.064;2023-05-07T08:38:34;17.20;67.00
12053;DHT22;6087;48.982;12.064;2023-05-07T08:41:01;17.20;66.20
12053;DHT22;6087;48.982;12.064;2023-05-07T08:43:28;17.20;65.20
12053;DHT22;6087;48.982;12.064;2023-05-07T08:46:01;17.30;66.30
12053;DHT22;6087;48.982;12.064;2023-05-07T08:48:30;17.30;65.70
12053;DHT22;6087;48.982;12.064;2023-05-07T08:50:58;17.30;65.20
12053;DHT22;6087;48.982;12.064;2023-05-07T08:53:25;17.40;66.30
12053;DHT22;6087;48.982;12.064;2023-05-07T08:55:53;17.40;67.80
12053;DHT22;6087;48.982;12.064;2023-05-07T08:58:20;17.50;66.40
12053;DHT22;6087;48.982;12.064;2023-05-07T09:00:47;17.50;67.60
12053;DHT22;6087;48.982;12.064;2023-05-07T09:03:14;17.60;66.60
12053;DHT22;6087;48.982;12.064;2023-05-07T09:05:42;17.60;66.00
12053;DHT22;6087;48.982;12.064;2023-05-07T09:08:13;17.60;66.10
12053;DHT22;6087;48.982;12.064;2023-05-07T09:10:41;17.70;66.40
12053;DHT22;6087;48.982;12.064;2023-05-07T09:13:12;17.70;64.50
12053;DHT22;6087;48.982;12.064;2023-05-07T09:15:43;17.70;64.70
12053;DHT22;6087;48.982;12.064;2023-05-07T09:18:09;17.70;66.30
12053;DHT22;6087;48.982;12.064;2023-05-07T09:20:37;17.80;65.00
12053;DHT22;6087;48.982;12.064;2023-05-07T09:23:06;17.80;65.50
12053;DHT22;6087;48.982;12.064;2023-05-07T09:25:34;17.80;64.30
12053;DHT22;6087;48.982;12.064;2023-05-07T09:28:03;17.80;65.10
12053;DHT22;6087;48.982;12.064;2023-05-07T09:30:31;17.80;65.60
12053;DHT22;6087;48.982;12.064;2023-05-07T09:32:59;17.80;64.60
12053;DHT22;6087;48.982;12.064;2023-05-07T09:35:27;17.80;65.30
12053;DHT22;6087;48.982;12.064;2023-05-07T09:37:58;17.90;64.00
12053;DHT22;6087;48.982;12.064;2023-05-07T09:40:28;17.90;63.80
12053;DHT22;6087;48.982;12.064;2023-05-07T09:42:55;17.90;64.50
12053;DHT22;6087;48.982;12.064;2023-05-07T09:45:28;17.90;64.80
12053;DHT22;6087;48.982;12.064;2023-05-07T09:47:57;17.90;64.00
12053;DHT22;6087;48.982;12.064;2023-05-07T09:50:29;17.90;62.70
12053;DHT22;6087;48.982;12.064;2023-05-07T09:52:58;17.90;64.70
12053;DHT22;6087;48.982;12.064;2023-05-07T09:55:27;18.00;65.50
12053;DHT22;6087;48.982;12.064;2023-05-07T09:57:54;18.10;65.70
12053;DHT22;6087;48.982;12.064;2023-05-07T10:00:22;18.10;64.30
12053;DHT22;6087;48.982;12.064;2023-05-07T10:02:52;18.10;63.00
12053;DHT22;6087;48.982;12.064;2023-05-07T10:05:20;18.20;61.30
12053;DHT22;6087;48.982;12.064;2023-05-07T10:07:48;18.20;59.90
12053;DHT22;6087;48.982;12.064;2023-05-07T10:10:15;18.30;61.30
12053;DHT22;6087;48.982;12.064;2023-05-07T10:12:43;18.40;60.30
12053;DHT22;6087;48.982;12.064;2023-05-07T10:15:12;18.40;59.40
12053;DHT22;6087;48.982;12.064;2023-05-07T10:17:40;18.40;60.00
12053;DHT22;6087;48.982;12.064;2023-05-07T10:20:08;18.50;59.90
12053;DHT22;6087;48.982;12.064;2023-05-07T10:22:38;18.50;60.30
12053;DHT22;6087;48.982;12.064;2023-05-07T10:25:08;18.60;61.00
12053;DHT22;6087;48.982;12.064;2023-05-07T10:27:36;18.70;58.90
12053;DHT22;6087;48.982;12.064;2023-05-07T10:30:15;18.70;58.30
12053;DHT22;6087;48.982;12.064;2023-05-07T10:32:47;18.80;58.70
12053;DHT22;6087;48.982;12.064;2023-05-07T10:35:21;18.90;57.80
12053;DHT22;6087;48.982;12.064;2023-05-07T10:37:49;19.00;60.00
12053;DHT22;6087;48.982;12.064;2023-05-07T10:40:17;19.10;59.90
12053;DHT22;6087;48.982;12.064;2023-05-07T10:42:55;19.30;58.30
12053;DHT22;6087;48.982;12.064;2023-05-07T10:45:29;19.40;59.20
12053;DHT22;6087;48.982;12.064;2023-05-07T10:48:10;19.50;55.80
12053;DHT22;6087;48.982;12.064;2023-05-07T10:50:37;19.60;54.80
12053;DHT22;6087;48.982;12.064;2023-05-07T10:53:21;19.60;53.40
12053;DHT22;6087;48.982;12.064;2023-05-07T10:56:08;19.60;53.50
12053;DHT22;6087;48.982;12.064;2023-05-07T10:58:38;19.70;53.20
12053;DHT22;6087;48.982;12.064;2023-05-07T11:01:07;19.80;53.00
12053;DHT22;6087;48.982;12.064;2023-05-07T11:03:35;19.80;52.60
12053;DHT22;6087;48.982;12.064;2023-05-07T11:06:10;19.80;51.30
12053;DHT22;6087;48.982;12.064;2023-05-07T11:08:56;19.70;52.10
12053;DHT22;6087;48.982;12.064;2023-05-07T11:11:45;19.60;51.10
12053;DHT22;6087;48.982;12.064;2023-05-07T11:14:13;19.60;51.30
12053;DHT22;6087;48.982;12.064;2023-05-07T11:16:43;19.50;50.40
12053;DHT22;6087;48.982;12.064;2023-05-07T11:19:10;19.50;50.20
12053;DHT22;6087;48.982;12.064;2023-05-07T11:21:38;19.40;50.10
12053;DHT22;6087;48.982;12.064;2023-05-07T11:24:06;19.40;50.90
12053;DHT22;6087;48.982;12.064;2023-05-07T11:26:48;19.30;50.80
12053;DHT22;6087;48.982;12.064;2023-05-07T11:29:16;19.40;50.40
12053;DHT22;6087;48.982;12.064;2023-05-07T11:31:48;19.50;49.90
12053;DHT22;6087;48.982;12.064;2023-05-07T11:34:15;19.60;49.60
12053;DHT22;6087;48.982;12.064;2023-05-07T11:36:47;19.80;50.50
12053;DHT22;6087;48.982;12.064;2023-05-07T11:39:28;19.90;50.80
12053;DHT22;6087;48.982;12.064;2023-05-07T11:41:55;20.00;51.40
12053;DHT22;6087;48.982;12.064;2023-05-07T11:44:22;20.10;50.40
12053;DHT22;6087;48.982;12.064;2023-05-07T11:46:51;20.30;48.70
12053;DHT22;6087;48.982;12.064;2023-05-07T11:49:18;20.40;48.00
12053;DHT22;6087;48.982;12.064;2023-05-07T11:51:45;20.60;43.10
12053;DHT22;6087;48.982;12.064;2023-05-07T11:54:16;20.70;42.90
12053;DHT22;6087;48.982;12.064;2023-05-07T11:56:44;20.90;42.80
12053;DHT22;6087;48.982;12.064;2023-05-07T11:59:11;21.00;42.90
12053;DHT22;6087;48.982;12.064;2023-05-07T12:01:38;21.10;43.50
12053;DHT22;6087;48.982;12.064;2023-05-07T12:04:07;21.20;42.30
12053;DHT22;6087;48.982;12.064;2023-05-07T12:06:36;21.40;38.10
12053;DHT22;6087;48.982;12.064;2023-05-07T12:09:04;21.50;35.40
12053;DHT22;6087;48.982;12.064;2023-05-07T12:11:33;21.50;36.20
12053;DHT22;6087;48.982;12.064;2023-05-07T12:14:00;21.50;31.60
12053;DHT22;6087;48.982;12.064;2023-05-07T12:16:27;21.60;30.70
12053;DHT22;6087;48.982;12.064;2023-05-07T12:18:55;21.70;28.00
12053;DHT22;6087;48.982;12.064;2023-05-07T12:21:29;21.70;32.00
12053;DHT22;6087;48.982;12.064;2023-05-07T12:23:56;21.80;33.50
12053;DHT22;6087;48.982;12.064;2023-05-07T12:26:26;21.90;30.70
12053;DHT22;6087;48.982;12.064;2023-05-07T12:28:54;22.00;34.30
12053;DHT22;6087;48.982;12.064;2023-05-07T12:31:20;22.00;32.30
12053;DHT22;6087;48.982;12.064;2023-05-07T12:33:50;21.90;32.40
12053;DHT22;6087;48.982;12.064;2023-05-07T12:36:16;21.80;32.90
12053;DHT22;6087;48.982;12.064;2023-05-07T12:38:45;21.80;30.80
12053;DHT22;6087;48.982;12.064;2023-05-07T12:41:12;21.80;30.70
12053;DHT22;6087;48.982;12.064;2023-05-07T12:43:38;21.60;31.50
12053;DHT22;6087;48.982;12.064;2023-05-07T12:46:06;21.60;31.20
12053;DHT22;6087;48.982;12.064;2023-05-07T12:48:35;21.50;31.40
12053;DHT22;6087;48.982;12.064;2023-05-07T12:51:02;21.60;31.70
12053;DHT22;6087;48.982;12.064;2023-05-07T12:53:30;21.70;31.60
12053;DHT22;6087;48.982;12.064;2023-05-07T12:55:59;21.90;32.90
12053;DHT22;6087;48.982;12.064;2023-05-07T12:58:27;22.00;32.20
12053;DHT22;6087;48.982;12.064;2023-05-07T13:00:55;22.10;30.40
12053;DHT22;6087;48.982;12.064;2023-05-07T13:03:28;22.10;30.20
12053;DHT22;6087;48.982;12.064;2023-05-07T13:05:59;22.20;28.90
12053;DHT22;6087;48.982;12.064;2023-05-07T13:08:28;22.20;30.00
12053;DHT22;6087;48.982;12.064;2023-05-07T13:10:56;22.30;29.00
12053;DHT22;6087;48.982;12.064;2023-05-07T13:13:24;22.30;29.10
12053;DHT22;6087;48.982;12.064;2023-05-07T13:15:51;22.30;27.70
12053;DHT22;6087;48.982;12.064;2023-05-07T13:18:20;22.30;28.10
12053;DHT22;6087;48.982;12.064;2023-05-07T13:20:47;22.30;28.70
12053;DHT22;6087;48.982;12.064;2023-05-07T13:23:14;22.30;26.70
12053;DHT22;6087;48.982;12.064;2023-05-07T13:25:41;22.40;26.00
12053;DHT22;6087;48.982;12.064;2023-05-07T13:28:08;22.40;25.50
12053;DHT22;6087;48.982;12.064;2023-05-07T13:30:36;22.40;25.70
12053;DHT22;6087;48.982;12.064;2023-05-07T13:33:03;22.50;25.30
12053;DHT22;6087;48.982;12.064;2023-05-07T13:35:30;22.60;25.30
12053;DHT22;6087;48.982;12.064;2023-05-07T13:37:57;22.70;25.60
12053;DHT22;6087;48.982;12.064;2023-05-07T13:40:24;22.70;26.10
12053;DHT22;6087;48.982;12.064;2023-05-07T13:42:50;22.70;26.70
12053;DHT22;6087;48.982;12.064;2023-05-07T13:45:18;22.70;24.50
12053;DHT22;6087;48.982;12.064;2023-05-07T13:47:46;22.70;23.00
12053;DHT22;6087;48.982;12.064;2023-05-07T13:50:15;22.70;22.70
12053;DHT22;6087;48.982;12.064;2023-05-07T13:52:42;22.70;23.10
12053;DHT22;6087;48.982;12.064;2023-05-07T13:55:13;22.80;22.70
12053;DHT22;6087;48.982;12.064;2023-05-07T13:57:39;22.80;21.70
12053;DHT22;6087;48.982;12.064;2023-05-07T14:00:07;22.80;22.40
12053;DHT22;6087;48.982;12.064;2023-05-07T14:02:34;22.70;21.60
12053;DHT22;6087;48.982;12.064;2023-05-07T14:05:04;22.60;20.70
12053;DHT22;6087;48.982;12.064;2023-05-07T14:07:31;22.60;20.50
12053;DHT22;6087;48.982;12.064;2023-05-07T14:09:58;22.50;19.80
12053;DHT22;6087;48.982;12.064;2023-05-07T14:12:25;22.40;20.30
12053;DHT22;6087;48.982;12.064;2023-05-07T14:14:52;22.40;19.80
12053;DHT22;6087;48.982;12.064;2023-05-07T14:17:19;22.40;19.30
12053;DHT22;6087;48.982;12.064;2023-05-07T14:19:48;22.40;18.40
12053;DHT22;6087;48.982;12.064;2023-05-07T14:22:17;22.40;19.60
12053;DHT22;6087;48.982;12.064;2023-05-07T14:24:43;22.50;19.50
12053;DHT22;6087;48.982;12.064;2023-05-07T14:27:13;22.50;21.70
12053;DHT22;6087;48.982;12.064;2023-05-07T14:29:40;22.50;19.60
12053;DHT22;6087;48.982;12.064;2023-05-07T14:32:08;22.40;19.40
12053;DHT22;6087;48.982;12.064;2023-05-07T14:34:35;22.30;20.10
12053;DHT22;6087;48.982;12.064;2023-05-07T14:37:03;22.30;19.00
12053;DHT22;6087;48.982;12.064;2023-05-07T14:39:31;22.30;18.80
12053;DHT22;6087;48.982;12.064;2023-05-07T14:41:58;22.30;18.50
12053;DHT22;6087;48.982;12.064;2023-05-07T14:44:25;22.30;20.30
12053;DHT22;6087;48.982;12.064;2023-05-07T14:46:52;22.30;18.10
12053;DHT22;6087;48.982;12.064;2023-05-07T14:49:19;22.20;18.00
12053;DHT22;6087;48.982;12.064;2023-05-07T14:51:46;22.20;20.30
12053;DHT22;6087;48.982;12.064;2023-05-07T14:54:13;22.20;20.20
12053;DHT22;6087;48.982;12.064;2023-05-07T14:56:42;22.30;20.80
12053;DHT22;6087;48.982;12.064;2023-05-07T14:59:09;22.10;18.40
12053;DHT22;6087;48.982;12.064;2023-05-07T15:01:37;22.10;18.70
12053;DHT22;6087;48.982;12.064;2023-05-07T15:04:06;22.00;18.40
12053;DHT22;6087;48.982;12.064;2023-05-07T15:06:32;21.90;18.10
12053;DHT22;6087;48.982;12.064;2023-05-07T15:09:00;21.70;17.40
12053;DHT22;6087;48.982;12.064;2023-05-07T15:11:27;21.50;18.70
12053;DHT22;6087;48.982;12.064;2023-05-07T15:13:55;21.50;18.60
12053;DHT22;6087;48.982;12.064;2023-05-07T15:16:22;21.50;19.60
12053;DHT22;6087;48.982;12.064;2023-05-07T15:18:49;21.40;20.10
12053;DHT22;6087;48.982;12.064;2023-05-07T15:21:16;21.20;19.50
12053;DHT22;6087;48.982;12.064;2023-05-07T15:23:43;21.10;20.80
12053;DHT22;6087;48.982;12.064;2023-05-07T15:26:10;21.00;20.70
12053;DHT22;6087;48.982;12.064;2023-05-07T15:28:37;21.00;20.60
12053;DHT22;6087;48.982;12.064;2023-05-07T15:31:06;20.90;20.90
12053;DHT22;6087;48.982;12.064;2023-05-07T15:33:34;20.80;21.00
12053;DHT22;6087;48.982;12.064;2023-05-07T15:36:01;20.80;21.20